Time;durP1;ratioP1;P1;durP2;ratioP2;P2;SDS_P1;SDS_P2;PMS_P1;PMS_P2;Temp;Humidity;BMP_temperature;BMP_pressure;BME280_temperature;BME280_humidity;BME280_pressure;Samples;Min_cycle;Max_cycle;Signal;HPM_P1;HPM_P2
2023/09/16 00:01:18;;;;;;;6.97;6.47;;;;;;;17.10;100.00;100024.63;4964690;28;20222;-80
2023/09/16 00:03:43;;;;;;;7.23;6.73;;;;;;;17.08;100.00;100023.00;4961804;28;20245;-79
2023/09/16 00:06:12;;;;;;;7.00;6.50;;;;;;;17.06;100.00;100020.47;4963500;28;20194;-81
2023/09/16 00:08:37;;;;;;;6.83;6.33;;;;;;;17.03;100.00;100026.66;4961668;28;20200;-81
2023/09/16 00:11:03;;;;;;;6.83;6.33;;;;;;;17.02;100.00;100027.56;4966248;28;20186;-80
2023/09/16 00:13:28;;;;;;;7.23;6.73;;;;;;;17.01;100.00;100020.66;4968972;28;20715;-79
2023/09/16 00:15:54;;;;;;;7.83;7.23;;;;;;;17.01;100.00;100018.03;4960098;28;20213;-80
2023/09/16 00:18:20;;;;;;;11.20;9.33;;;;;;;17.00;100.00;100012.84;4957931;28;20222;-79
2023/09/16 00:20:49;;;;;;;8.00;7.40;;;;;;;16.97;100.00;100016.44;4965500;28;20671;-79
2023/09/16 00:23:15;;;;;;;8.20;7.53;;;;;;;16.95;100.00;100009.56;4971880;28;20286;-79
2023/09/16 00:25:40;;;;;;;7.73;7.13;;;;;;;16.94;100.00;100010.47;4979322;28;20239;-80
2023/09/16 00:28:06;;;;;;;8.00;7.30;;;;;;;16.92;100.00;100014.00;4989413;28;20211;-81
2023/09/16 00:30:32;;;;;;;7.27;6.77;;;;;;;16.92;100.00;100015.75;4981184;28;20189;-80
2023/09/16 00:32:58;;;;;;;7.70;7.13;;;;;;;16.92;100.00;100014.00;4957710;28;20203;-81
2023/09/16 00:35:23;;;;;;;7.43;6.83;;;;;;;16.92;100.00;100013.13;4973176;28;20217;-81
2023/09/16 00:37:48;;;;;;;7.30;6.80;;;;;;;16.90;100.00;100007.97;4969733;28;20878;-81
2023/09/16 00:40:14;;;;;;;6.97;6.47;;;;;;;16.89;100.00;100013.25;4974573;28;20214;-80
2023/09/16 00:42:40;;;;;;;7.53;6.93;;;;;;;16.87;100.00;100015.06;4966559;28;20191;-81
2023/09/16 00:45:07;;;;;;;7.60;7.00;;;;;;;16.85;100.00;100022.97;4973729;28;20209;-80
2023/09/16 00:47:33;;;;;;;7.53;6.93;;;;;;;16.82;100.00;100017.88;4968854;28;20197;-80
2023/09/16 00:49:59;;;;;;;7.37;6.77;;;;;;;16.77;100.00;100017.22;4991741;28;20253;-81
2023/09/16 00:52:26;;;;;;;8.23;7.53;;;;;;;16.73;100.00;100016.47;4974121;28;20200;-78
2023/09/16 00:54:53;;;;;;;6.83;6.30;;;;;;;16.69;100.00;100014.91;4968890;28;20264;-80
2023/09/16 00:57:19;;;;;;;7.30;6.80;;;;;;;16.66;100.00;100016.75;4973586;28;21677;-80
2023/09/16 00:59:44;;;;;;;7.67;7.07;;;;;;;16.64;100.00;100024.66;4968457;28;20183;-80
2023/09/16 01:02:10;;;;;;;7.30;6.70;;;;;;;16.61;100.00;100012.59;4974722;28;20201;-79
2023/09/16 01:04:38;;;;;;;7.50;6.90;;;;;;;16.59;100.00;100013.53;4965892;28;20253;-79
2023/09/16 01:07:05;;;;;;;6.73;6.23;;;;;;;16.57;100.00;100015.34;4964739;28;20190;-80
2023/09/16 01:09:31;;;;;;;6.90;6.40;;;;;;;16.55;100.00;100011.97;4968144;28;20584;-81
2023/09/16 01:11:56;;;;;;;7.73;7.13;;;;;;;16.55;100.00;100014.59;4969748;28;20197;-81
2023/09/16 01:14:23;;;;;;;7.30;6.70;;;;;;;16.54;100.00;100020.72;4970158;28;20224;-81
2023/09/16 01:17:05;;;;;;;7.47;6.97;;;;;;;16.54;100.00;100021.53;4975224;28;20280;-80
2023/09/16 01:19:59;;;;;;;7.03;6.53;;;;;;;16.54;100.00;100023.31;4962031;28;20185;-80
2023/09/16 01:22:24;;;;;;;7.93;7.23;;;;;;;16.51;100.00;100026.03;4961424;28;20191;-80
2023/09/16 01:24:54;;;;;;;8.10;7.50;;;;;;;16.51;100.00;100023.44;4969362;28;20701;-82
2023/09/16 01:27:21;;;;;;;7.50;7.00;;;;;;;16.48;100.00;100026.16;4965241;28;20605;-81
2023/09/16 01:29:47;;;;;;;8.00;7.40;;;;;;;16.43;100.00;100027.16;4974320;28;20184;-79
2023/09/16 01:32:15;;;;;;;7.47;6.83;;;;;;;16.37;100.00;100030.03;4967915;28;20266;-79
2023/09/16 01:34:44;;;;;;;8.83;8.03;;;;;;;16.33;100.00;100027.59;4965568;28;20216;-80
2023/09/16 01:37:16;;;;;;;7.53;7.00;;;;;;;16.28;100.00;100032.97;4966033;28;20205;-80
2023/09/16 01:39:47;;;;;;;7.97;7.47;;;;;;;16.25;100.00;100041.78;4955224;28;20195;-80
2023/09/16 01:42:13;;;;;;;7.97;7.37;;;;;;;16.21;100.00;100037.56;4955813;28;20193;-80
2023/09/16 01:44:38;;;;;;;7.93;7.33;;;;;;;16.19;100.00;100043.75;4955083;28;20210;-81
2023/09/16 01:47:05;;;;;;;7.93;7.33;;;;;;;16.17;100.00;100045.56;4966325;28;20224;-80
2023/09/16 01:49:30;;;;;;;7.80;7.20;;;;;;;16.13;100.00;100044.84;4964844;28;20245;-80
2023/09/16 01:51:56;;;;;;;7.27;6.77;;;;;;;16.12;100.00;100048.34;4969111;28;20182;-78
2023/09/16 01:54:21;;;;;;;8.30;7.70;;;;;;;16.10;100.00;100047.53;4952303;28;20206;-79
2023/09/16 01:56:47;;;;;;;7.73;7.13;;;;;;;16.09;100.00;100045.84;4957892;28;20190;-81
2023/09/16 01:59:13;;;;;;;7.23;6.73;;;;;;;16.06;100.00;100046.81;4962293;28;20189;-82
2023/09/16 02:01:38;;;;;;;7.70;7.10;;;;;;;16.05;100.00;100044.25;4960656;28;20182;-81
2023/09/16 02:04:03;;;;;;;7.67;6.97;;;;;;;16.04;100.00;100056.44;4964265;28;20594;-80
2023/09/16 02:06:29;;;;;;;7.30;6.70;;;;;;;16.03;100.00;100057.34;4975834;28;20542;-80
2023/09/16 02:08:54;;;;;;;7.77;7.07;;;;;;;16.03;100.00;100059.97;4969558;28;20185;-81
2023/09/16 02:11:19;;;;;;;7.00;6.50;;;;;;;16.03;100.00;100054.75;4966135;28;20264;-80
2023/09/16 02:13:44;;;;;;;7.53;6.93;;;;;;;16.03;100.00;100053.91;4973386;28;20212;-79
2023/09/16 02:16:10;;;;;;;7.87;7.17;;;;;;;16.02;100.00;100057.44;4972138;28;20197;-80
2023/09/16 02:18:36;;;;;;;8.13;7.43;;;;;;;16.00;100.00;100062.69;4982908;28;20240;-79
2023/09/16 02:21:01;;;;;;;7.60;7.07;;;;;;;15.97;100.00;100065.38;4973080;28;20277;-80
2023/09/16 02:23:27;;;;;;;8.17;7.50;;;;;;;15.95;100.00;100067.22;4966214;28;20202;-80
2023/09/16 02:25:52;;;;;;;7.43;6.83;;;;;;;15.92;100.00;100070.78;4966967;28;20213;-81
2023/09/16 02:28:17;;;;;;;7.50;6.90;;;;;;;15.88;100.00;100065.72;4973867;28;20174;-80
2023/09/16 02:30:42;;;;;;;7.93;7.33;;;;;;;15.83;100.00;100073.69;4964995;28;20230;-82
2023/09/16 02:33:08;;;;;;;7.57;7.00;;;;;;;15.82;100.00;100071.97;4963817;28;20212;-79
2023/09/16 02:35:33;;;;;;;8.13;7.53;;;;;;;15.78;100.00;100073.84;4968261;28;20240;-81
2023/09/16 02:37:58;;;;;;;7.80;7.20;;;;;;;15.75;100.00;100073.06;4974157;28;20233;-80
2023/09/16 02:40:24;;;;;;;7.03;6.53;;;;;;;15.70;100.00;100068.00;4975594;28;20194;-82
2023/09/16 02:42:50;;;;;;;7.63;7.03;;;;;;;15.65;100.00;100062.97;4972655;28;20216;-81
2023/09/16 02:45:15;;;;;;;6.97;6.47;;;;;;;15.63;100.00;100059.53;4973926;28;20254;-82
2023/09/16 02:47:40;;;;;;;7.43;6.83;;;;;;;15.60;100.00;100064.84;4978210;28;20205;-80
2023/09/16 02:50:07;;;;;;;7.53;6.90;;;;;;;15.59;100.00;100064.91;4973455;28;20186;-78
2023/09/16 02:52:32;;;;;;;7.53;7.00;;;;;;;15.58;100.00;100065.81;4970082;28;20190;-79
2023/09/16 02:54:57;;;;;;;7.70;7.10;;;;;;;15.58;100.00;100063.22;4975465;28;20217;-79
2023/09/16 02:57:23;;;;;;;7.30;6.70;;;;;;;15.55;100.00;100065.03;4959098;28;20215;-79
2023/09/16 02:59:48;;;;;;;7.67;7.07;;;;;;;15.55;100.00;100074.63;4972210;28;20255;-80
2023/09/16 03:02:15;;;;;;;7.43;6.83;;;;;;;15.53;100.00;100077.25;4973972;28;20276;-81
2023/09/16 03:04:41;;;;;;;7.57;6.87;;;;;;;15.53;100.00;100072.03;4976524;28;20299;-80
2023/09/16 03:07:06;;;;;;;7.50;7.00;;;;;;;15.53;100.00;100069.44;4971901;28;20829;-79
2023/09/16 03:09:31;;;;;;;7.33;6.83;;;;;;;15.53;100.00;100066.81;4970336;28;20218;-79
2023/09/16 03:11:57;;;;;;;8.13;7.40;;;;;;;15.52;100.00;100062.50;4958581;28;20673;-79
2023/09/16 03:14:22;;;;;;;8.63;7.93;;;;;;;15.54;100.00;100062.47;4971986;28;20213;-80
2023/09/16 03:16:48;;;;;;;8.90;8.10;;;;;;;15.51;100.00;100059.97;4971801;28;20190;-81
2023/09/16 03:19:16;;;;;;;8.43;7.73;;;;;;;15.48;100.00;100053.09;4970007;28;20190;-80
2023/09/16 03:21:41;;;;;;;7.30;6.80;;;;;;;15.47;100.00;100056.63;4953048;28;20193;-79
2023/09/16 03:24:07;;;;;;;7.70;7.13;;;;;;;15.47;100.00;100046.19;4962924;28;20205;-79
2023/09/16 03:26:32;;;;;;;7.50;6.90;;;;;;;15.48;100.00;100049.63;4958408;28;20321;-79
2023/09/16 03:28:57;;;;;;;7.63;6.93;;;;;;;15.47;100.00;100045.31;4964420;28;20186;-80
2023/09/16 03:31:23;;;;;;;8.17;7.57;;;;;;;15.46;100.00;100051.44;4968304;28;20193;-78
2023/09/16 03:33:48;;;;;;;7.60;7.00;;;;;;;15.46;100.00;100038.38;4974656;28;20201;-79
2023/09/16 03:36:13;;;;;;;7.70;7.10;;;;;;;15.46;100.00;100038.38;4972962;28;20927;-78
2023/09/16 03:38:48;;;;;;;7.43;6.83;;;;;;;15.45;100.00;100034.94;4975346;28;20212;-79
2023/09/16 03:41:15;;;;;;;8.00;7.33;;;;;;;15.43;100.00;100030.69;4957744;28;20276;-77
2023/09/16 03:43:40;;;;;;;7.37;6.77;;;;;;;15.40;100.00;100031.63;4967926;28;20201;-77
2023/09/16 03:46:06;;;;;;;7.70;7.10;;;;;;;15.38;100.00;100030.81;4964451;28;20606;-78
2023/09/16 03:48:31;;;;;;;7.90;7.30;;;;;;;15.36;100.00;100032.63;4974701;28;20200;-76
2023/09/16 03:50:56;;;;;;;7.50;6.90;;;;;;;15.31;100.00;100026.72;4962139;28;20287;-79
2023/09/16 03:53:25;;;;;;;7.40;6.83;;;;;;;15.24;100.00;100021.69;4979926;28;20201;-80
2023/09/16 03:55:53;;;;;;;7.80;7.20;;;;;;;15.19;100.00;100022.75;4967770;28;20197;-78
2023/09/16 03:58:19;;;;;;;8.13;7.53;;;;;;;15.15;100.00;100024.63;4972843;28;20212;-80
2023/09/16 04:00:44;;;;;;;8.00;7.40;;;;;;;15.13;100.00;100023.81;4966090;28;20193;-76
2023/09/16 04:03:11;;;;;;;7.07;6.57;;;;;;;15.12;100.00;100021.25;4977796;28;20197;-76
2023/09/16 04:05:37;;;;;;;6.37;5.97;;;;;;;15.11;100.00;100016.94;4983432;28;20208;-76
2023/09/16 04:08:02;;;;;;;8.67;7.87;;;;;;;15.11;100.00;100017.78;4968891;28;20184;-79
2023/09/16 04:10:27;;;;;;;8.27;7.50;;;;;;;15.13;100.00;100018.59;4963885;28;20190;-78
2023/09/16 04:12:53;;;;;;;7.73;7.13;;;;;;;15.15;100.00;100018.53;4965203;28;20189;-77
2023/09/16 04:15:18;;;;;;;8.30;7.50;;;;;;;15.16;100.00;100015.91;4965941;28;20218;-77
2023/09/16 04:17:43;;;;;;;8.33;7.63;;;;;;;15.17;100.00;100012.38;4972848;28;20345;-78
2023/09/16 04:20:09;;;;;;;10.33;9.20;;;;;;;15.15;100.00;100008.97;4970108;28;20662;-78
2023/09/16 04:22:35;;;;;;;8.33;7.63;;;;;;;15.13;100.00;99999.47;4964640;28;20190;-77
2023/09/16 04:25:01;;;;;;;8.00;7.30;;;;;;;15.09;100.00;99997.00;4965423;28;20629;-77
2023/09/16 04:27:26;;;;;;;8.13;7.50;;;;;;;15.09;100.00;100006.56;4962290;28;20189;-78
2023/09/16 04:29:51;;;;;;;8.23;7.43;;;;;;;15.08;100.00;99999.63;4965666;28;20720;-77
2023/09/16 04:32:16;;;;;;;7.60;7.00;;;;;;;15.06;100.00;99999.69;4966144;28;20804;-78
2023/09/16 04:34:42;;;;;;;7.90;7.27;;;;;;;15.05;100.00;100007.59;4968134;28;20212;-79
2023/09/16 04:37:08;;;;;;;7.47;6.97;;;;;;;15.03;100.00;100005.00;4967151;28;20215;-78
2023/09/16 04:39:34;;;;;;;7.43;6.80;;;;;;;15.01;100.00;100008.56;4970028;28;20200;-80
2023/09/16 04:41:59;;;;;;;7.30;6.77;;;;;;;14.98;100.00;100006.06;4974520;28;20190;-80
2023/09/16 04:44:26;;;;;;;7.23;6.70;;;;;;;14.94;100.00;100013.13;4965009;28;20212;-77
2023/09/16 04:46:53;;;;;;;7.70;7.10;;;;;;;14.91;100.00;100008.84;4959631;28;20730;-78
2023/09/16 04:49:21;;;;;;;7.70;7.10;;;;;;;14.90;100.00;100001.09;4963889;28;20928;-78
2023/09/16 04:51:47;;;;;;;7.37;6.77;;;;;;;14.88;100.00;99997.66;4962228;28;20177;-76
2023/09/16 04:54:13;;;;;;;7.33;6.83;;;;;;;14.86;100.00;100002.94;4969030;28;20209;-78
2023/09/16 04:56:38;;;;;;;7.33;6.73;;;;;;;14.86;100.00;100004.69;4954340;28;20210;-77
2023/09/16 04:59:04;;;;;;;8.00;7.40;;;;;;;14.86;100.00;99999.47;4962204;28;20213;-78
2023/09/16 05:01:30;;;;;;;7.70;7.10;;;;;;;14.85;100.00;100003.84;4960130;28;20204;-79
2023/09/16 05:03:56;;;;;;;8.10;7.50;;;;;;;14.85;100.00;99997.75;4960303;28;20308;-78
2023/09/16 05:06:21;;;;;;;8.33;7.53;;;;;;;14.85;100.00;100005.56;4961091;28;20220;-78
2023/09/16 05:08:47;;;;;;;8.13;7.53;;;;;;;14.85;100.00;99995.16;4966992;28;20198;-77
2023/09/16 05:11:13;;;;;;;8.00;7.30;;;;;;;14.86;100.00;99996.88;4958965;28;20697;-76
2023/09/16 05:13:39;;;;;;;8.03;7.23;;;;;;;14.82;100.00;99996.13;4962728;28;20210;-77
2023/09/16 05:16:05;;;;;;;8.47;7.77;;;;;;;14.80;100.00;99994.47;4959537;28;20590;-77
2023/09/16 05:18:30;;;;;;;8.23;7.53;;;;;;;14.77;100.00;99998.88;4958289;28;20217;-78
2023/09/16 05:20:55;;;;;;;7.53;6.93;;;;;;;14.76;100.00;99999.78;4963046;28;20199;-76
2023/09/16 05:23:23;;;;;;;8.70;8.00;;;;;;;14.74;100.00;99995.53;4961329;28;20209;-77
2023/09/16 05:25:49;;;;;;;9.20;8.40;;;;;;;14.73;100.00;99996.41;4958325;28;20185;-76
2023/09/16 05:28:15;;;;;;;8.60;7.90;;;;;;;14.73;100.00;99999.84;4958955;28;20174;-78
2023/09/16 05:30:42;;;;;;;9.43;8.57;;;;;;;14.74;100.00;99995.53;4960329;28;20220;-78
2023/09/16 05:33:09;;;;;;;9.60;8.80;;;;;;;14.76;100.00;99999.78;4957887;28;20204;-78
2023/09/16 05:35:34;;;;;;;8.83;8.03;;;;;;;14.78;100.00;100000.56;4962638;28;20214;-79
2023/09/16 05:38:00;;;;;;;9.60;8.70;;;;;;;14.82;100.00;99996.13;4966725;28;20209;-80
2023/09/16 05:40:25;;;;;;;10.60;8.70;;;;;;;14.88;100.00;100001.16;4960871;28;20197;-78
2023/09/16 05:42:50;;;;;;;8.70;8.00;;;;;;;14.91;100.00;100001.03;4955790;28;20190;-78
2023/09/16 05:45:16;;;;;;;8.83;8.13;;;;;;;14.92;100.00;99992.31;4959263;28;20212;-79
2023/09/16 05:47:42;;;;;;;7.83;7.23;;;;;;;14.97;100.00;100000.00;4961371;28;20207;-79
2023/09/16 05:50:08;;;;;;;7.17;6.57;;;;;;;15.02;100.00;99999.84;4954204;28;20281;-79
2023/09/16 05:52:33;;;;;;;8.13;7.43;;;;;;;15.06;100.00;100002.31;4960585;28;20185;-76
2023/09/16 05:54:58;;;;;;;7.90;7.20;;;;;;;15.13;100.00;100004.69;4966834;28;20217;-77
2023/09/16 05:57:24;;;;;;;7.30;6.63;;;;;;;15.15;100.00;100003.75;4960402;28;20209;-76
2023/09/16 05:59:49;;;;;;;7.50;6.80;;;;;;;15.22;100.00;100017.44;4964617;28;20186;-76
2023/09/16 06:02:16;;;;;;;7.63;6.70;;;;;;;15.28;100.00;100006.81;4965094;28;20198;-76
2023/09/16 06:04:42;;;;;;;7.50;6.90;;;;;;;15.37;100.00;100014.34;4969255;28;20208;-76
2023/09/16 06:07:08;;;;;;;7.73;7.03;;;;;;;15.47;100.00;100017.50;4982340;28;20238;-77
2023/09/16 06:09:33;;;;;;;7.67;6.97;;;;;;;15.58;100.00;100011.06;4982734;28;20228;-77
2023/09/16 06:11:59;;;;;;;8.10;7.33;;;;;;;15.67;100.00;100013.34;4980198;28;20186;-77
2023/09/16 06:14:24;;;;;;;7.97;7.37;;;;;;;15.82;100.00;100017.19;4973150;28;20213;-77
2023/09/16 06:16:50;;;;;;;7.87;7.17;;;;;;;15.96;100.00;100014.97;4974990;28;20665;-77
2023/09/16 06:19:15;;;;;;;6.67;6.17;;;;;;;16.06;100.00;100019.84;4978858;28;20207;-77
2023/09/16 06:21:40;;;;;;;8.00;7.30;;;;;;;16.13;100.00;100016.97;4987477;28;20285;-77
2023/09/16 06:24:06;;;;;;;7.00;6.50;;;;;;;16.23;100.00;100024.47;4982020;28;20234;-77
2023/09/16 06:26:31;;;;;;;7.20;6.67;;;;;;;16.32;100.00;100023.28;4989608;28;20200;-77
2023/09/16 06:28:57;;;;;;;7.57;7.07;;;;;;;16.40;100.00;100026.44;4988647;28;20189;-77
2023/09/16 06:31:22;;;;;;;7.80;7.20;;;;;;;16.46;100.00;100034.91;4972944;28;20189;-78
2023/09/16 06:33:49;;;;;;;7.77;7.20;;;;;;;16.54;100.00;100045.06;4979759;28;20217;-79
2023/09/16 06:36:15;;;;;;;7.40;6.80;;;;;;;16.65;100.00;100042.03;4991994;28;20195;-78
2023/09/16 06:38:40;;;;;;;7.33;6.73;;;;;;;16.77;100.00;100045.97;4994434;28;20293;-77
2023/09/16 06:41:05;;;;;;;7.87;7.23;;;;;;;16.89;100.00;100042.00;4982289;28;20229;-77
2023/09/16 06:43:30;;;;;;;7.33;6.73;;;;;;;16.98;100.00;100043.44;4977486;28;20224;-77
2023/09/16 06:45:56;;;;;;;8.73;8.03;;;;;;;17.08;100.00;100036.06;4975343;28;20199;-77
2023/09/16 06:48:21;;;;;;;7.77;7.27;;;;;;;17.17;100.00;100033.94;4965215;28;20194;-77
2023/09/16 06:50:46;;;;;;;8.10;7.50;;;;;;;17.29;100.00;100032.59;4967697;28;20602;-77
2023/09/16 06:53:12;;;;;;;8.40;7.70;;;;;;;17.44;100.00;100035.50;4962849;28;20199;-77
2023/09/16 06:55:37;;;;;;;8.13;7.53;;;;;;;17.58;100.00;100034.91;4963425;28;20210;-77
2023/09/16 06:58:04;;;;;;;8.70;8.00;;;;;;;17.78;100.00;100032.28;4978874;28;20228;-78
2023/09/16 07:00:30;;;;;;;10.50;9.70;;;;;;;18.08;100.00;100020.56;4956394;28;20198;-77
2023/09/16 07:02:57;;;;;;;9.10;8.30;;;;;;;18.49;100.00;100030.09;4962264;28;20202;-77
2023/09/16 07:05:22;;;;;;;8.83;8.13;;;;;;;18.92;100.00;100027.22;4964892;28;20218;-77
2023/09/16 07:07:48;;;;;;;8.03;7.37;;;;;;;19.32;100.00;100033.19;4968523;28;20241;-77
2023/09/16 07:10:13;;;;;;;7.23;6.63;;;;;;;19.61;100.00;100038.72;4962705;28;20225;-77
2023/09/16 07:12:38;;;;;;;7.97;7.20;;;;;;;19.79;100.00;100039.59;4961254;28;20232;-78
2023/09/16 07:15:04;;;;;;;7.40;6.80;;;;;;;20.07;100.00;100039.00;4967220;28;20237;-77
2023/09/16 07:17:32;;;;;;;8.10;7.30;;;;;;;20.35;100.00;100041.97;4964776;28;20312;-78
2023/09/16 07:19:57;;;;;;;6.80;6.20;;;;;;;20.43;100.00;100039.75;4964711;28;20193;-77
2023/09/16 07:22:22;;;;;;;6.93;6.20;;;;;;;20.53;100.00;100046.22;4966179;28;20260;-77
2023/09/16 07:24:48;;;;;;;7.20;6.43;;;;;;;20.75;100.00;100046.81;4957690;28;20340;-76
2023/09/16 07:27:13;;;;;;;7.50;6.80;;;;;;;20.96;100.00;100039.53;4961118;28;20201;-78
2023/09/16 07:29:38;;;;;;;7.83;7.13;;;;;;;21.08;100.00;100044.09;4959347;28;20191;-77
2023/09/16 07:32:04;;;;;;;8.37;7.67;;;;;;;21.00;100.00;100043.72;4963861;28;20670;-77
2023/09/16 07:34:29;;;;;;;7.10;6.40;;;;;;;21.25;100.00;100044.94;4962291;28;20228;-78
2023/09/16 07:36:56;;;;;;;7.27;6.60;;;;;;;21.40;100.00;100037.94;4961305;28;20532;-77
2023/09/16 07:39:21;;;;;;;7.60;6.83;;;;;;;21.35;100.00;100040.81;4963606;28;20186;-77
2023/09/16 07:41:47;;;;;;;7.03;6.43;;;;;;;21.59;100.00;100035.91;4954475;28;20698;-78
2023/09/16 07:44:12;;;;;;;8.57;7.30;;;;;;;21.29;100.00;100036.75;4959820;28;20206;-78
2023/09/16 07:46:37;;;;;;;8.27;7.57;;;;;;;21.28;100.00;100042.13;4961082;28;20189;-77
2023/09/16 07:49:03;;;;;;;9.33;8.63;;;;;;;21.02;100.00;100044.47;4961165;28;20204;-77
2023/09/16 07:51:28;;;;;;;8.23;7.57;;;;;;;20.65;100.00;100046.47;4961354;28;20796;-78
2023/09/16 07:53:53;;;;;;;7.57;7.07;;;;;;;20.41;100.00;100050.38;4963486;28;20220;-77
2023/09/16 07:56:20;;;;;;;8.47;7.53;;;;;;;20.62;100.00;100055.41;4956304;28;20714;-77
2023/09/16 07:58:45;;;;;;;8.70;8.00;;;;;;;20.03;100.00;100057.66;4961527;28;20217;-76
2023/09/16 08:01:11;;;;;;;9.23;8.33;;;;;;;19.93;100.00;100047.63;4960492;28;20263;-76
2023/09/16 08:03:37;;;;;;;8.53;7.87;;;;;;;20.09;100.00;100050.28;4956997;28;20230;-77
2023/09/16 08:06:03;;;;;;;8.30;7.60;;;;;;;20.35;100.00;100052.47;4958112;28;20256;-77
2023/09/16 08:08:29;;;;;;;8.63;7.93;;;;;;;20.17;100.00;100056.94;4961608;28;20185;-76
2023/09/16 08:10:54;;;;;;;9.40;8.60;;;;;;;19.88;100.00;100064.56;4963909;28;20186;-77
2023/09/16 08:13:19;;;;;;;8.37;7.67;;;;;;;20.08;100.00;100050.38;4962104;28;20592;-76
2023/09/16 08:15:45;;;;;;;7.87;7.27;;;;;;;20.23;100.00;100052.22;4963863;28;20667;-76
2023/09/16 08:18:10;;;;;;;8.80;8.10;;;;;;;20.29;100.00;100052.78;4961593;28;20758;-77
2023/09/16 08:20:36;;;;;;;8.70;8.00;;;;;;;20.20;100.00;100048.88;4960050;28;22123;-77
2023/09/16 08:23:01;;;;;;;9.00;8.30;;;;;;;20.10;100.00;100043.28;4961607;28;20309;-77
2023/09/16 08:25:26;;;;;;;9.63;8.83;;;;;;;20.10;100.00;100052.00;4961826;28;20233;-78
2023/09/16 08:27:52;;;;;;;8.90;8.20;;;;;;;20.19;100.00;100058.53;4959999;28;20186;-76
2023/09/16 08:30:17;;;;;;;9.20;8.50;;;;;;;20.33;100.00;100057.81;4960321;28;20182;-77
2023/09/16 08:32:46;;;;;;;9.60;8.80;;;;;;;20.34;100.00;100058.66;4960167;28;20194;-78
2023/09/16 08:35:14;;;;;;;7.93;7.33;;;;;;;20.58;100.00;100067.00;4976232;28;20196;-78
2023/09/16 08:37:39;;;;;;;9.00;8.20;;;;;;;20.53;100.00;100059.38;4972347;28;20280;-77
2023/09/16 08:40:05;;;;;;;8.90;8.10;;;;;;;20.49;100.00;100065.72;4957753;28;20206;-78
2023/09/16 08:42:48;;;;;;;8.23;7.53;;;;;;;20.70;100.00;100063.69;4959867;28;20281;-78
2023/09/16 08:45:15;;;;;;;7.73;7.13;;;;;;;20.79;100.00;100072.06;4960222;28;20213;-77
2023/09/16 08:47:46;;;;;;;7.93;7.27;;;;;;;20.88;100.00;100071.53;4961122;28;20190;-77
2023/09/16 08:50:13;;;;;;;8.80;7.90;;;;;;;20.73;100.00;100075.81;4961473;28;20193;-76
2023/09/16 08:52:54;;;;;;;8.17;7.37;;;;;;;20.74;100.00;100080.16;4954179;28;20204;-78
2023/09/16 08:55:20;;;;;;;8.03;7.43;;;;;;;20.86;100.00;100081.28;4955481;28;20225;-78
2023/09/16 08:58:00;;;;;;;8.97;8.17;;;;;;;20.89;100.00;100089.03;4953055;28;20216;-78
2023/09/16 09:00:26;;;;;;;8.00;7.33;;;;;;;21.18;100.00;100091.81;4958346;28;21002;-76
2023/09/16 09:02:52;;;;;;;7.43;6.87;;;;;;;21.35;100.00;100082.09;4959881;28;20193;-77
2023/09/16 09:05:19;;;;;;;8.07;7.20;;;;;;;21.34;100.00;100083.03;4955619;28;20209;-78
2023/09/16 09:07:44;;;;;;;7.67;6.80;;;;;;;21.58;100.00;100091.28;4960048;28;20273;-78
2023/09/16 09:10:13;;;;;;;6.83;6.33;;;;;;;21.71;100.00;100083.53;4964350;28;20240;-77
2023/09/16 09:12:40;;;;;;;7.40;6.90;;;;;;;21.87;100.00;100089.59;4962001;28;20300;-78
2023/09/16 09:15:10;;;;;;;7.30;6.70;;;;;;;21.97;100.00;100086.44;4957570;28;20305;-77
2023/09/16 09:17:38;;;;;;;6.90;6.40;;;;;;;22.12;100.00;100068.84;4963710;28;20701;-79
2023/09/16 09:20:11;;;;;;;8.17;7.57;;;;;;;22.32;100.00;100072.88;4968516;28;20201;-77
2023/09/16 09:22:40;;;;;;;8.20;7.50;;;;;;;21.87;100.00;100070.31;4962130;28;20943;-77
2023/09/16 09:25:07;;;;;;;7.63;7.03;;;;;;;21.64;100.00;100082.22;4955775;28;20209;-78
2023/09/16 09:27:32;;;;;;;7.63;6.97;;;;;;;21.74;100.00;100071.06;4958562;28;20185;-77
2023/09/16 09:29:58;;;;;;;7.40;6.70;;;;;;;21.87;100.00;100068.53;4958775;28;20196;-78
2023/09/16 09:32:31;;;;;;;7.67;7.07;;;;;;;22.04;100.00;100067.53;4958058;28;20214;-78
2023/09/16 09:35:06;;;;;;;7.90;7.30;;;;;;;22.01;100.00;100067.72;4957390;28;20213;-79
2023/09/16 09:37:32;;;;;;;7.83;7.17;;;;;;;22.17;100.00;100059.69;4958866;28;20225;-79
2023/09/16 09:40:09;;;;;;;7.53;6.83;;;;;;;22.10;100.00;100062.81;4957904;28;20952;-77
2023/09/16 09:42:40;;;;;;;7.97;7.20;;;;;;;22.28;100.00;100063.47;4953775;28;20190;-76
2023/09/16 09:45:06;;;;;;;7.13;6.63;;;;;;;22.21;100.00;100061.22;4963401;28;20224;-77
2023/09/16 09:47:31;;;;;;;6.57;5.97;;;;;;;22.21;100.00;100055.09;4958210;28;20198;-77
2023/09/16 09:49:57;;;;;;;7.03;6.53;;;;;;;22.31;100.00;100061.50;4958553;28;20225;-78
2023/09/16 09:52:23;;;;;;;7.17;6.57;;;;;;;22.52;100.00;100061.16;4964882;28;20186;-78
2023/09/16 09:54:52;;;;;;;6.50;6.00;;;;;;;22.71;100.00;100059.97;4960101;28;20421;-78
2023/09/16 09:57:17;;;;;;;6.63;6.13;;;;;;;22.79;100.00;100061.16;4963903;28;20280;-78
2023/09/16 09:59:42;;;;;;;7.10;6.43;;;;;;;22.75;100.00;100053.56;4963810;28;20190;-78
2023/09/16 10:02:08;;;;;;;6.13;5.63;;;;;;;22.69;100.00;100050.34;4965232;28;20268;-78
2023/09/16 10:04:34;;;;;;;6.93;6.33;;;;;;;23.02;100.00;100056.22;4957799;28;20213;-79
2023/09/16 10:07:00;;;;;;;7.23;6.57;;;;;;;23.21;100.00;100053.25;4962498;28;20304;-77
2023/09/16 10:09:25;;;;;;;6.77;6.17;;;;;;;23.12;100.00;100054.66;4963833;28;20194;-78
2023/09/16 10:11:51;;;;;;;7.03;6.53;;;;;;;23.28;100.00;100054.53;4962133;28;20202;-77
2023/09/16 10:14:17;;;;;;;6.67;6.07;;;;;;;23.25;100.00;100048.59;4964339;28;21465;-76
2023/09/16 10:16:42;;;;;;;6.87;6.33;;;;;;;23.39;99.33;100048.53;4972045;28;20318;-78
2023/09/16 10:19:09;;;;;;;7.10;6.50;;;;;;;23.20;99.16;100040.13;4969113;28;20250;-77
2023/09/16 10:21:37;;;;;;;6.33;5.83;;;;;;;23.26;100.00;100045.88;4964358;28;20197;-76
2023/09/16 10:24:02;;;;;;;7.37;6.67;;;;;;;23.63;98.66;100036.41;4964045;28;20221;-76
2023/09/16 10:26:28;;;;;;;6.83;6.33;;;;;;;23.81;98.00;100036.97;4957799;28;20261;-78
2023/09/16 10:28:54;;;;;;;7.03;6.53;;;;;;;23.84;96.31;100040.25;4966038;28;20182;-78
2023/09/16 10:31:20;;;;;;;6.87;6.20;;;;;;;23.83;97.52;100041.19;4962678;28;20182;-77
2023/09/16 10:33:47;;;;;;;6.87;6.23;;;;;;;24.18;96.22;100045.00;4959185;28;20213;-79
2023/09/16 10:36:14;;;;;;;6.20;5.70;;;;;;;24.34;95.22;100039.50;4967604;28;20198;-78
2023/09/16 10:38:40;;;;;;;7.07;6.47;;;;;;;24.02;96.49;100042.59;4963407;28;20436;-76
2023/09/16 10:41:07;;;;;;;6.10;5.70;;;;;;;24.12;96.14;100042.81;4954623;28;20220;-78
2023/09/16 10:43:33;;;;;;;6.97;6.47;;;;;;;24.28;96.39;100038.09;4961858;28;20202;-77
2023/09/16 10:45:58;;;;;;;6.50;6.00;;;;;;;24.43;95.21;100041.47;4964810;28;20625;-77
2023/09/16 10:48:24;;;;;;;7.83;6.20;;;;;;;24.54;95.29;100038.06;4963568;28;20182;-76
2023/09/16 10:50:53;;;;;;;6.20;5.70;;;;;;;24.67;94.63;100027.44;4966442;28;20601;-78
2023/09/16 10:53:23;;;;;;;6.97;6.37;;;;;;;24.76;93.30;100020.66;4960233;28;20236;-77
2023/09/16 10:55:59;;;;;;;6.80;6.20;;;;;;;24.90;93.37;100027.59;4965169;28;21994;-76
2023/09/16 10:59:10;;;;;;;6.87;6.27;;;;;;;24.69;93.04;100020.22;4963214;28;20217;-76
2023/09/16 11:01:48;;;;;;;6.97;6.30;;;;;;;25.42;92.74;100022.91;4957860;28;20194;-77
2023/09/16 11:04:16;;;;;;;6.80;6.23;;;;;;;25.69;90.59;100017.31;4964102;28;20758;-76
2023/09/16 11:06:43;;;;;;;6.90;6.40;;;;;;;25.80;90.69;100019.09;4961605;28;20209;-76
2023/09/16 11:09:09;;;;;;;5.83;5.43;;;;;;;26.19;90.28;100007.34;4966135;28;20331;-77
2023/09/16 11:11:36;;;;;;;7.20;6.70;;;;;;;26.04;89.05;100026.13;4964708;28;20208;-77
2023/09/16 11:14:03;;;;;;;7.17;6.57;;;;;;;26.15;89.38;100007.56;4963415;28;20616;-77
2023/09/16 11:16:28;;;;;;;6.83;6.23;;;;;;;25.93;88.75;100018.16;4959501;28;20199;-77